sensor_id;sensor_type;location;lat;lon;timestamp;temperature;humidity
10344;DHT22;5217;43.960;10.954;2023-08-30T00:00:10;23.20;99.90
10344;DHT22;5217;43.960;10.954;2023-08-30T00:02:39;23.20;99.90
10344;DHT22;5217;43.960;10.954;2023-08-30T00:05:07;23.20;99.90
10344;DHT22;5217;43.960;10.954;2023-08-30T00:07:38;23.20;99.90
10344;DHT22;5217;43.960;10.954;2023-08-30T00:10:07;23.20;99.90
10344;DHT22;5217;43.960;10.954;2023-08-30T00:12:38;23.20;99.90
10344;DHT22;5217;43.960;10.954;2023-08-30T00:15:07;23.20;99.90
10344;DHT22;5217;43.960;10.954;2023-08-30T00:17:36;23.20;99.90
10344;DHT22;5217;43.960;10.954;2023-08-30T00:20:06;23.20;99.90
10344;DHT22;5217;43.960;10.954;2023-08-30T00:22:35;23.20;99.90
10344;DHT22;5217;43.960;10.954;2023-08-30T00:25:05;23.20;99.90
10344;DHT22;5217;43.960;10.954;2023-08-30T00:27:34;23.20;99.90
10344;DHT22;5217;43.960;10.954;2023-08-30T00:30:03;23.20;99.90
10344;DHT22;5217;43.960;10.954;2023-08-30T00:32:31;23.20;99.90
10344;DHT22;5217;43.960;10.954;2023-08-30T00:35:00;23.20;99.90
10344;DHT22;5217;43.960;10.954;2023-08-30T00:37:28;23.20;99.90
10344;DHT22;5217;43.960;10.954;2023-08-30T00:39:57;23.20;99.90
10344;DHT22;5217;43.960;10.954;2023-08-30T00:42:28;23.20;99.90
10344;DHT22;5217;43.960;10.954;2023-08-30T00:44:56;23.10;99.90
10344;DHT22;5217;43.960;10.954;2023-08-30T00:47:24;23.10;99.90
10344;DHT22;5217;43.960;10.954;2023-08-30T00:49:53;23.10;99.90
10344;DHT22;5217;43.960;10.954;2023-08-30T00:52:21;23.10;99.90
10344;DHT22;5217;43.960;10.954;2023-08-30T00:54:50;23.10;99.90
10344;DHT22;5217;43.960;10.954;2023-08-30T00:57:19;23.10;99.90
10344;DHT22;5217;43.960;10.954;2023-08-30T00:59:49;23.10;99.90
10344;DHT22;5217;43.960;10.954;2023-08-30T01:02:18;23.10;99.90
10344;DHT22;5217;43.960;10.954;2023-08-30T01:04:47;23.10;99.90
10344;DHT22;5217;43.960;10.954;2023-08-30T01:07:16;23.10;99.90
10344;DHT22;5217;43.960;10.954;2023-08-30T01:09:46;23.10;99.90
10344;DHT22;5217;43.960;10.954;2023-08-30T01:12:20;23.10;99.90
10344;DHT22;5217;43.960;10.954;2023-08-30T01:14:58;23.10;99.90
10344;DHT22;5217;43.960;10.954;2023-08-30T01:17:28;23.10;99.90
10344;DHT22;5217;43.960;10.954;2023-08-30T01:20:00;23.10;99.90
10344;DHT22;5217;43.960;10.954;2023-08-30T01:22:38;23.00;99.90
10344;DHT22;5217;43.960;10.954;2023-08-30T01:25:19;23.00;99.90
10344;DHT22;5217;43.960;10.954;2023-08-30T01:27:51;23.00;99.90
10344;DHT22;5217;43.960;10.954;2023-08-30T01:30:21;23.00;99.90
10344;DHT22;5217;43.960;10.954;2023-08-30T01:32:50;23.00;99.90
10344;DHT22;5217;43.960;10.954;2023-08-30T01:35:20;23.00;99.90
10344;DHT22;5217;43.960;10.954;2023-08-30T01:37:50;23.00;99.90
10344;DHT22;5217;43.960;10.954;2023-08-30T01:40:20;23.00;99.90
10344;DHT22;5217;43.960;10.954;2023-08-30T01:42:50;23.00;99.90
10344;DHT22;5217;43.960;10.954;2023-08-30T01:45:20;23.00;99.90
10344;DHT22;5217;43.960;10.954;2023-08-30T01:47:50;23.00;99.90
10344;DHT22;5217;43.960;10.954;2023-08-30T01:50:20;23.00;99.90
10344;DHT22;5217;43.960;10.954;2023-08-30T01:52:49;23.00;99.90
10344;DHT22;5217;43.960;10.954;2023-08-30T01:55:18;22.90;99.90
10344;DHT22;5217;43.960;10.954;2023-08-30T01:57:50;23.00;99.90
10344;DHT22;5217;43.960;10.954;2023-08-30T02:00:18;23.00;99.90
10344;DHT22;5217;43.960;10.954;2023-08-30T02:02:48;22.90;99.90
10344;DHT22;5217;43.960;10.954;2023-08-30T02:05:16;23.00;99.90
10344;DHT22;5217;43.960;10.954;2023-08-30T02:07:51;22.90;99.90
10344;DHT22;5217;43.960;10.954;2023-08-30T02:10:24;23.00;99.90
10344;DHT22;5217;43.960;10.954;2023-08-30T02:12:57;23.00;99.90
10344;DHT22;5217;43.960;10.954;2023-08-30T02:15:27;22.90;99.90
10344;DHT22;5217;43.960;10.954;2023-08-30T02:17:58;22.90;99.90
10344;DHT22;5217;43.960;10.954;2023-08-30T02:20:27;22.90;99.90
10344;DHT22;5217;43.960;10.954;2023-08-30T02:22:58;22.90;99.90
10344;DHT22;5217;43.960;10.954;2023-08-30T02:25:40;22.90;99.90
10344;DHT22;5217;43.960;10.954;2023-08-30T02:28:10;22.90;99.90
10344;DHT22;5217;43.960;10.954;2023-08-30T02:30:38;22.90;99.90
10344;DHT22;5217;43.960;10.954;2023-08-30T02:33:07;22.90;99.90
10344;DHT22;5217;43.960;10.954;2023-08-30T02:35:35;22.90;99.90
10344;DHT22;5217;43.960;10.954;2023-08-30T02:38:03;22.90;99.90
10344;DHT22;5217;43.960;10.954;2023-08-30T02:40:32;22.90;99.90
10344;DHT22;5217;43.960;10.954;2023-08-30T02:43:01;22.90;99.90
10344;DHT22;5217;43.960;10.954;2023-08-30T02:45:31;22.90;99.90
10344;DHT22;5217;43.960;10.954;2023-08-30T02:47:59;22.90;99.90
10344;DHT22;5217;43.960;10.954;2023-08-30T02:50:28;22.90;99.90
10344;DHT22;5217;43.960;10.954;2023-08-30T02:52:56;22.90;99.90
10344;DHT22;5217;43.960;10.954;2023-08-30T02:55:24;22.80;99.90
10344;DHT22;5217;43.960;10.954;2023-08-30T02:57:53;22.80;99.90
10344;DHT22;5217;43.960;10.954;2023-08-30T03:00:21;22.80;99.90
10344;DHT22;5217;43.960;10.954;2023-08-30T03:02:51;22.80;99.90
10344;DHT22;5217;43.960;10.954;2023-08-30T03:05:19;22.80;99.90
10344;DHT22;5217;43.960;10.954;2023-08-30T03:07:48;22.80;99.90
10344;DHT22;5217;43.960;10.954;2023-08-30T03:10:18;22.80;99.90
10344;DHT22;5217;43.960;10.954;2023-08-30T03:12:46;22.80;99.90
10344;DHT22;5217;43.960;10.954;2023-08-30T03:15:15;22.80;99.90
10344;DHT22;5217;43.960;10.954;2023-08-30T03:17:43;22.70;99.90
10344;DHT22;5217;43.960;10.954;2023-08-30T03:20:14;22.80;99.90
10344;DHT22;5217;43.960;10.954;2023-08-30T03:22:42;22.70;99.90
10344;DHT22;5217;43.960;10.954;2023-08-30T03:25:11;22.70;99.90
10344;DHT22;5217;43.960;10.954;2023-08-30T03:27:39;22.70;99.90
10344;DHT22;5217;43.960;10.954;2023-08-30T03:30:08;22.70;99.90
10344;DHT22;5217;43.960;10.954;2023-08-30T03:32:37;22.70;99.90
10344;DHT22;5217;43.960;10.954;2023-08-30T03:35:06;22.70;99.90
10344;DHT22;5217;43.960;10.954;2023-08-30T03:37:36;22.70;99.90
10344;DHT22;5217;43.960;10.954;2023-08-30T03:40:06;22.70;99.90
10344;DHT22;5217;43.960;10.954;2023-08-30T03:42:38;22.70;99.90
10344;DHT22;5217;43.960;10.954;2023-08-30T03:45:08;22.70;99.90
10344;DHT22;5217;43.960;10.954;2023-08-30T03:47:37;22.70;99.90
10344;DHT22;5217;43.960;10.954;2023-08-30T03:50:07;22.70;99.90
10344;DHT22;5217;43.960;10.954;2023-08-30T03:52:37;22.70;99.90
10344;DHT22;5217;43.960;10.954;2023-08-30T03:55:06;22.70;99.90
10344;DHT22;5217;43.960;10.954;2023-08-30T03:57:35;22.60;99.90
10344;DHT22;5217;43.960;10.954;2023-08-30T04:00:04;22.60;99.90
10344;DHT22;5217;43.960;10.954;2023-08-30T04:02:33;22.60;99.90
10344;DHT22;5217;43.960;10.954;2023-08-30T04:05:02;22.60;99.90
10344;DHT22;5217;43.960;10.954;2023-08-30T04:07:31;22.60;99.90
10344;DHT22;5217;43.960;10.954;2023-08-30T04:10:01;22.60;99.90
10344;DHT22;5217;43.960;10.954;2023-08-30T04:12:33;22.60;99.90
10344;DHT22;5217;43.960;10.954;2023-08-30T04:15:02;22.60;99.90
10344;DHT22;5217;43.960;10.954;2023-08-30T04:17:30;22.60;99.90
10344;DHT22;5217;43.960;10.954;2023-08-30T04:19:59;22.60;99.90
10344;DHT22;5217;43.960;10.954;2023-08-30T04:22:31;22.60;99.90
10344;DHT22;5217;43.960;10.954;2023-08-30T04:25:04;22.60;99.90
10344;DHT22;5217;43.960;10.954;2023-08-30T04:27:34;22.60;99.90
10344;DHT22;5217;43.960;10.954;2023-08-30T04:30:03;22.60;99.90
10344;DHT22;5217;43.960;10.954;2023-08-30T04:32:32;22.60;99.90
10344;DHT22;5217;43.960;10.954;2023-08-30T04:35:00;22.60;99.90
10344;DHT22;5217;43.960;10.954;2023-08-30T04:37:30;22.50;99.90
10344;DHT22;5217;43.960;10.954;2023-08-30T04:39:59;22.50;99.90
10344;DHT22;5217;43.960;10.954;2023-08-30T04:42:29;22.50;99.90
10344;DHT22;5217;43.960;10.954;2023-08-30T04:44:57;22.50;99.90
10344;DHT22;5217;43.960;10.954;2023-08-30T04:47:28;22.50;99.90
10344;DHT22;5217;43.960;10.954;2023-08-30T04:49:56;22.50;99.90
10344;DHT22;5217;43.960;10.954;2023-08-30T04:52:25;22.50;99.90
10344;DHT22;5217;43.960;10.954;2023-08-30T04:54:54;22.50;99.90
10344;DHT22;5217;43.960;10.954;2023-08-30T04:57:22;22.50;99.90
10344;DHT22;5217;43.960;10.954;2023-08-30T04:59:52;22.50;99.90
10344;DHT22;5217;43.960;10.954;2023-08-30T05:02:20;22.50;99.90
10344;DHT22;5217;43.960;10.954;2023-08-30T05:04:49;22.50;99.90
10344;DHT22;5217;43.960;10.954;2023-08-30T05:07:17;22.50;99.90
10344;DHT22;5217;43.960;10.954;2023-08-30T05:09:46;22.50;99.90
10344;DHT22;5217;43.960;10.954;2023-08-30T05:12:14;22.50;99.90
10344;DHT22;5217;43.960;10.954;2023-08-30T05:14:42;22.50;99.90
10344;DHT22;5217;43.960;10.954;2023-08-30T05:17:12;22.50;99.90
10344;DHT22;5217;43.960;10.954;2023-08-30T05:19:40;22.40;99.90
10344;DHT22;5217;43.960;10.954;2023-08-30T05:22:09;22.50;99.90
10344;DHT22;5217;43.960;10.954;2023-08-30T05:24:37;22.50;99.90
10344;DHT22;5217;43.960;10.954;2023-08-30T05:27:06;22.50;99.90
10344;DHT22;5217;43.960;10.954;2023-08-30T05:29:35;22.50;99.90
10344;DHT22;5217;43.960;10.954;2023-08-30T05:32:04;22.40;99.90
10344;DHT22;5217;43.960;10.954;2023-08-30T05:34:37;22.50;99.90
10344;DHT22;5217;43.960;10.954;2023-08-30T05:37:05;22.50;99.90
10344;DHT22;5217;43.960;10.954;2023-08-30T05:39:34;22.50;99.90
10344;DHT22;5217;43.960;10.954;2023-08-30T05:42:03;22.50;99.90
10344;DHT22;5217;43.960;10.954;2023-08-30T05:44:31;22.50;99.90
10344;DHT22;5217;43.960;10.954;2023-08-30T05:47:00;22.40;99.90
10344;DHT22;5217;43.960;10.954;2023-08-30T05:49:28;22.50;99.90
10344;DHT22;5217;43.960;10.954;2023-08-30T05:51:58;22.40;99.90
10344;DHT22;5217;43.960;10.954;2023-08-30T05:54:27;22.50;99.90
10344;DHT22;5217;43.960;10.954;2023-08-30T05:56:58;22.50;99.90
10344;DHT22;5217;43.960;10.954;2023-08-30T05:59:26;22.50;99.90
10344;DHT22;5217;43.960;10.954;2023-08-30T06:01:55;22.50;99.90
10344;DHT22;5217;43.960;10.954;2023-08-30T06:04:23;22.50;99.90
10344;DHT22;5217;43.960;10.954;2023-08-30T06:06:52;22.60;99.90
10344;DHT22;5217;43.960;10.954;2023-08-30T06:09:22;22.60;99.90
10344;DHT22;5217;43.960;10.954;2023-08-30T06:11:50;22.60;99.90
10344;DHT22;5217;43.960;10.954;2023-08-30T06:14:18;22.60;99.90
10344;DHT22;5217;43.960;10.954;2023-08-30T06:16:47;22.60;99.90
10344;DHT22;5217;43.960;10.954;2023-08-30T06:19:16;22.60;99.90
10344;DHT22;5217;43.960;10.954;2023-08-30T06:21:44;22.60;99.90
10344;DHT22;5217;43.960;10.954;2023-08-30T06:24:13;22.70;99.90
10344;DHT22;5217;43.960;10.954;2023-08-30T06:26:42;22.70;99.90
10344;DHT22;5217;43.960;10.954;2023-08-30T06:29:11;22.70;99.90
10344;DHT22;5217;43.960;10.954;2023-08-30T06:31:39;22.70;99.90
10344;DHT22;5217;43.960;10.954;2023-08-30T06:34:09;22.70;99.90
10344;DHT22;5217;43.960;10.954;2023-08-30T06:36:37;22.70;99.90
10344;DHT22;5217;43.960;10.954;2023-08-30T06:39:06;22.70;99.90
10344;DHT22;5217;43.960;10.954;2023-08-30T06:41:35;22.80;99.90
10344;DHT22;5217;43.960;10.954;2023-08-30T06:44:08;22.80;99.90
10344;DHT22;5217;43.960;10.954;2023-08-30T06:46:37;22.80;99.90
10344;DHT22;5217;43.960;10.954;2023-08-30T06:49:06;22.80;99.90
10344;DHT22;5217;43.960;10.954;2023-08-30T06:51:36;22.80;99.90
10344;DHT22;5217;43.960;10.954;2023-08-30T06:54:05;22.80;99.90
10344;DHT22;5217;43.960;10.954;2023-08-30T06:56:33;22.80;99.90
10344;DHT22;5217;43.960;10.954;2023-08-30T06:59:01;22.80;99.90
10344;DHT22;5217;43.960;10.954;2023-08-30T07:01:31;22.80;99.90
10344;DHT22;5217;43.960;10.954;2023-08-30T07:04:02;22.90;99.90
10344;DHT22;5217;43.960;10.954;2023-08-30T07:06:31;22.90;99.90
10344;DHT22;5217;43.960;10.954;2023-08-30T07:08:59;22.80;99.90
10344;DHT22;5217;43.960;10.954;2023-08-30T07:11:28;22.80;99.90
10344;DHT22;5217;43.960;10.954;2023-08-30T07:14:00;22.80;99.90
10344;DHT22;5217;43.960;10.954;2023-08-30T07:16:30;22.80;99.90
10344;DHT22;5217;43.960;10.954;2023-08-30T07:18:59;22.80;99.90
10344;DHT22;5217;43.960;10.954;2023-08-30T07:21:28;22.90;99.90
10344;DHT22;5217;43.960;10.954;2023-08-30T07:23:57;22.90;99.90
10344;DHT22;5217;43.960;10.954;2023-08-30T07:26:25;22.90;99.90
10344;DHT22;5217;43.960;10.954;2023-08-30T07:28:54;22.90;99.90
10344;DHT22;5217;43.960;10.954;2023-08-30T07:31:22;22.90;99.90
10344;DHT22;5217;43.960;10.954;2023-08-30T07:33:52;22.90;99.90
10344;DHT22;5217;43.960;10.954;2023-08-30T07:36:21;22.90;99.90
10344;DHT22;5217;43.960;10.954;2023-08-30T07:39:03;23.00;99.90
10344;DHT22;5217;43.960;10.954;2023-08-30T07:41:34;23.00;99.90
10344;DHT22;5217;43.960;10.954;2023-08-30T07:44:02;23.00;99.90
10344;DHT22;5217;43.960;10.954;2023-08-30T07:46:31;23.00;99.90
10344;DHT22;5217;43.960;10.954;2023-08-30T07:49:01;23.00;99.90
10344;DHT22;5217;43.960;10.954;2023-08-30T07:51:29;23.10;99.90
10344;DHT22;5217;43.960;10.954;2023-08-30T07:53:58;23.00;99.90
10344;DHT22;5217;43.960;10.954;2023-08-30T07:56:26;23.00;99.90
10344;DHT22;5217;43.960;10.954;2023-08-30T07:58:57;23.10;99.90
10344;DHT22;5217;43.960;10.954;2023-08-30T08:01:25;23.10;99.90
10344;DHT22;5217;43.960;10.954;2023-08-30T08:03:53;23.10;99.90
10344;DHT22;5217;43.960;10.954;2023-08-30T08:06:35;23.10;99.90
10344;DHT22;5217;43.960;10.954;2023-08-30T08:09:04;23.00;99.90
10344;DHT22;5217;43.960;10.954;2023-08-30T08:11:34;23.10;99.90
10344;DHT22;5217;43.960;10.954;2023-08-30T08:14:03;23.10;99.90
10344;DHT22;5217;43.960;10.954;2023-08-30T08:16:31;23.10;99.90
10344;DHT22;5217;43.960;10.954;2023-08-30T08:19:00;23.00;99.90
10344;DHT22;5217;43.960;10.954;2023-08-30T08:21:28;23.00;99.90
10344;DHT22;5217;43.960;10.954;2023-08-30T08:23:58;23.00;99.90
10344;DHT22;5217;43.960;10.954;2023-08-30T08:26:27;23.00;99.90
10344;DHT22;5217;43.960;10.954;2023-08-30T08:28:56;23.00;99.90
10344;DHT22;5217;43.960;10.954;2023-08-30T08:31:25;23.00;99.90
10344;DHT22;5217;43.960;10.954;2023-08-30T08:34:07;23.00;99.90
10344;DHT22;5217;43.960;10.954;2023-08-30T08:36:35;23.00;99.90
10344;DHT22;5217;43.960;10.954;2023-08-30T08:39:05;23.00;99.90
10344;DHT22;5217;43.960;10.954;2023-08-30T08:41:38;23.10;99.90
10344;DHT22;5217;43.960;10.954;2023-08-30T08:44:07;23.10;99.90
10344;DHT22;5217;43.960;10.954;2023-08-30T08:46:37;23.20;99.90
10344;DHT22;5217;43.960;10.954;2023-08-30T08:49:09;23.20;99.90
10344;DHT22;5217;43.960;10.954;2023-08-30T08:51:40;23.20;99.90
10344;DHT22;5217;43.960;10.954;2023-08-30T08:54:11;23.30;99.90
10344;DHT22;5217;43.960;10.954;2023-08-30T08:56:40;23.30;99.90
10344;DHT22;5217;43.960;10.954;2023-08-30T08:59:08;23.30;99.90
10344;DHT22;5217;43.960;10.954;2023-08-30T09:01:39;23.30;99.90
10344;DHT22;5217;43.960;10.954;2023-08-30T09:04:09;23.40;99.90
10344;DHT22;5217;43.960;10.954;2023-08-30T09:06:39;23.40;99.90
10344;DHT22;5217;43.960;10.954;2023-08-30T09:09:10;23.30;99.90
10344;DHT22;5217;43.960;10.954;2023-08-30T09:11:38;23.30;99.90
10344;DHT22;5217;43.960;10.954;2023-08-30T09:14:09;23.30;99.90
10344;DHT22;5217;43.960;10.954;2023-08-30T09:16:38;23.30;99.90
10344;DHT22;5217;43.960;10.954;2023-08-30T09:19:06;23.30;99.90
10344;DHT22;5217;43.960;10.954;2023-08-30T09:21:37;23.30;99.90
10344;DHT22;5217;43.960;10.954;2023-08-30T09:24:06;23.40;99.90
10344;DHT22;5217;43.960;10.954;2023-08-30T09:26:36;23.30;99.90
10344;DHT22;5217;43.960;10.954;2023-08-30T09:29:06;23.40;99.90
10344;DHT22;5217;43.960;10.954;2023-08-30T09:31:35;23.40;99.90
10344;DHT22;5217;43.960;10.954;2023-08-30T09:34:05;23.40;99.90
10344;DHT22;5217;43.960;10.954;2023-08-30T09:36:33;23.40;99.90
10344;DHT22;5217;43.960;10.954;2023-08-30T09:39:06;23.50;99.90
10344;DHT22;5217;43.960;10.954;2023-08-30T09:41:40;23.50;99.90
10344;DHT22;5217;43.960;10.954;2023-08-30T09:44:09;23.50;99.90
10344;DHT22;5217;43.960;10.954;2023-08-30T09:46:42;23.50;99.80
10344;DHT22;5217;43.960;10.954;2023-08-30T09:49:19;23.50;99.40
10344;DHT22;5217;43.960;10.954;2023-08-30T09:51:49;23.50;99.20
10344;DHT22;5217;43.960;10.954;2023-08-30T09:54:39;23.60;99.50
10344;DHT22;5217;43.960;10.954;2023-08-30T09:57:10;23.60;99.60
10344;DHT22;5217;43.960;10.954;2023-08-30T09:59:39;23.60;99.40
10344;DHT22;5217;43.960;10.954;2023-08-30T10:02:08;23.60;99.40
10344;DHT22;5217;43.960;10.954;2023-08-30T10:04:38;23.60;98.90
10344;DHT22;5217;43.960;10.954;2023-08-30T10:07:09;23.60;99.00
10344;DHT22;5217;43.960;10.954;2023-08-30T10:09:38;23.60;99.10
10344;DHT22;5217;43.960;10.954;2023-08-30T10:12:29;23.60;99.00
10344;DHT22;5217;43.960;10.954;2023-08-30T10:15:00;23.70;99.30
10344;DHT22;5217;43.960;10.954;2023-08-30T10:17:31;23.70;99.40
10344;DHT22;5217;43.960;10.954;2023-08-30T10:20:05;23.70;99.30
10344;DHT22;5217;43.960;10.954;2023-08-30T10:22:36;23.70;99.30
10344;DHT22;5217;43.960;10.954;2023-08-30T10:25:08;23.80;99.40
10344;DHT22;5217;43.960;10.954;2023-08-30T10:27:42;23.80;99.50
10344;DHT22;5217;43.960;10.954;2023-08-30T10:30:12;23.90;99.60
10344;DHT22;5217;43.960;10.954;2023-08-30T10:32:44;24.00;99.90
10344;DHT22;5217;43.960;10.954;2023-08-30T10:35:14;24.00;99.90
10344;DHT22;5217;43.960;10.954;2023-08-30T10:37:53;24.10;99.90
10344;DHT22;5217;43.960;10.954;2023-08-30T10:40:21;24.00;99.90
10344;DHT22;5217;43.960;10.954;2023-08-30T10:43:01;24.00;99.90
10344;DHT22;5217;43.960;10.954;2023-08-30T10:45:31;24.10;99.90
10344;DHT22;5217;43.960;10.954;2023-08-30T10:48:00;24.10;99.90
10344;DHT22;5217;43.960;10.954;2023-08-30T10:50:29;24.10;99.90
10344;DHT22;5217;43.960;10.954;2023-08-30T10:52:58;24.00;99.90
10344;DHT22;5217;43.960;10.954;2023-08-30T10:55:27;24.00;99.80
10344;DHT22;5217;43.960;10.954;2023-08-30T10:58:01;23.90;99.90
10344;DHT22;5217;43.960;10.954;2023-08-30T11:00:32;23.90;99.90
10344;DHT22;5217;43.960;10.954;2023-08-30T11:03:00;24.00;99.90
10344;DHT22;5217;43.960;10.954;2023-08-30T11:05:29;24.00;99.80
10344;DHT22;5217;43.960;10.954;2023-08-30T11:07:58;24.00;99.50
10344;DHT22;5217;43.960;10.954;2023-08-30T11:10:26;24.00;99.40
10344;DHT22;5217;43.960;10.954;2023-08-30T11:12:56;24.00;99.60
10344;DHT22;5217;43.960;10.954;2023-08-30T11:15:26;24.10;99.80
10344;DHT22;5217;43.960;10.954;2023-08-30T11:18:02;24.10;99.90
10344;DHT22;5217;43.960;10.954;2023-08-30T11:20:31;24.10;99.90
10344;DHT22;5217;43.960;10.954;2023-08-30T11:23:02;24.20;99.90
10344;DHT22;5217;43.960;10.954;2023-08-30T11:25:31;24.20;99.90
10344;DHT22;5217;43.960;10.954;2023-08-30T11:28:03;24.20;99.90
10344;DHT22;5217;43.960;10.954;2023-08-30T11:30:33;24.30;99.90
10344;DHT22;5217;43.960;10.954;2023-08-30T11:33:03;24.40;99.90
10344;DHT22;5217;43.960;10.954;2023-08-30T11:35:32;24.40;99.90
10344;DHT22;5217;43.960;10.954;2023-08-30T11:38:00;24.40;99.90
10344;DHT22;5217;43.960;10.954;2023-08-30T11:40:28;24.40;99.90
10344;DHT22;5217;43.960;10.954;2023-08-30T11:42:57;24.50;99.90
10344;DHT22;5217;43.960;10.954;2023-08-30T11:45:26;24.40;98.90
10344;DHT22;5217;43.960;10.954;2023-08-30T11:47:55;24.50;98.60
10344;DHT22;5217;43.960;10.954;2023-08-30T11:50:26;24.50;98.10
10344;DHT22;5217;43.960;10.954;2023-08-30T11:53:05;24.60;98.20
10344;DHT22;5217;43.960;10.954;2023-08-30T11:55:34;24.70;98.20
10344;DHT22;5217;43.960;10.954;2023-08-30T11:58:03;25.00;98.30
10344;DHT22;5217;43.960;10.954;2023-08-30T12:00:33;25.20;98.10
10344;DHT22;5217;43.960;10.954;2023-08-30T12:03:05;25.40;97.70
10344;DHT22;5217;43.960;10.954;2023-08-30T12:05:34;25.50;97.00
10344;DHT22;5217;43.960;10.954;2023-08-30T12:08:04;25.50;96.80
10344;DHT22;5217;43.960;10.954;2023-08-30T12:10:33;25.50;96.60
10344;DHT22;5217;43.960;10.954;2023-08-30T12:13:01;25.50;94.20
10344;DHT22;5217;43.960;10.954;2023-08-30T12:15:30;25.60;94.50
10344;DHT22;5217;43.960;10.954;2023-08-30T12:18:07;25.60;94.50
10344;DHT22;5217;43.960;10.954;2023-08-30T12:20:36;25.60;94.30
10344;DHT22;5217;43.960;10.954;2023-08-30T12:23:04;25.70;94.90
10344;DHT22;5217;43.960;10.954;2023-08-30T12:25:33;25.70;94.90
10344;DHT22;5217;43.960;10.954;2023-08-30T12:28:02;25.60;94.60
10344;DHT22;5217;43.960;10.954;2023-08-30T12:30:30;25.50;94.70
10344;DHT22;5217;43.960;10.954;2023-08-30T12:33:00;25.50;95.30
10344;DHT22;5217;43.960;10.954;2023-08-30T12:35:31;25.50;95.50
10344;DHT22;5217;43.960;10.954;2023-08-30T12:38:00;25.40;96.20
10344;DHT22;5217;43.960;10.954;2023-08-30T12:40:28;25.40;96.60
10344;DHT22;5217;43.960;10.954;2023-08-30T12:42:56;25.40;97.10
10344;DHT22;5217;43.960;10.954;2023-08-30T12:45:25;25.30;97.10
10344;DHT22;5217;43.960;10.954;2023-08-30T12:47:53;25.30;97.10
10344;DHT22;5217;43.960;10.954;2023-08-30T12:50:22;25.40;97.40
10344;DHT22;5217;43.960;10.954;2023-08-30T12:52:52;25.80;97.30
10344;DHT22;5217;43.960;10.954;2023-08-30T12:55:20;26.00;96.40
10344;DHT22;5217;43.960;10.954;2023-08-30T12:57:49;26.30;95.80
10344;DHT22;5217;43.960;10.954;2023-08-30T13:00:17;26.40;95.20
10344;DHT22;5217;43.960;10.954;2023-08-30T13:02:46;26.40;94.30
10344;DHT22;5217;43.960;10.954;2023-08-30T13:05:15;26.30;94.50
10344;DHT22;5217;43.960;10.954;2023-08-30T13:07:44;26.50;95.60
10344;DHT22;5217;43.960;10.954;2023-08-30T13:10:14;26.70;95.20
10344;DHT22;5217;43.960;10.954;2023-08-30T13:12:42;26.70;95.00
10344;DHT22;5217;43.960;10.954;2023-08-30T13:15:11;26.60;94.20
10344;DHT22;5217;43.960;10.954;2023-08-30T13:17:39;26.40;94.20
10344;DHT22;5217;43.960;10.954;2023-08-30T13:20:09;26.40;94.00
10344;DHT22;5217;43.960;10.954;2023-08-30T13:22:38;26.20;93.20
10344;DHT22;5217;43.960;10.954;2023-08-30T13:25:07;26.10;92.40
10344;DHT22;5217;43.960;10.954;2023-08-30T13:27:37;26.10;92.60
10344;DHT22;5217;43.960;10.954;2023-08-30T13:30:06;26.10;92.30
10344;DHT22;5217;43.960;10.954;2023-08-30T13:32:35;26.00;92.40
10344;DHT22;5217;43.960;10.954;2023-08-30T13:35:04;26.00;92.70
10344;DHT22;5217;43.960;10.954;2023-08-30T13:38:10;25.90;92.60
10344;DHT22;5217;43.960;10.954;2023-08-30T13:44:52;25.70;92.70
10344;DHT22;5217;43.960;10.954;2023-08-30T13:47:25;25.70;92.80
10344;DHT22;5217;43.960;10.954;2023-08-30T13:49:56;25.70;92.70
10344;DHT22;5217;43.960;10.954;2023-08-30T13:52:29;25.70;92.60
10344;DHT22;5217;43.960;10.954;2023-08-30T13:55:12;25.80;92.80
10344;DHT22;5217;43.960;10.954;2023-08-30T13:57:50;25.90;92.70
10344;DHT22;5217;43.960;10.954;2023-08-30T14:00:23;26.10;92.80
10344;DHT22;5217;43.960;10.954;2023-08-30T14:02:51;26.20;92.90
10344;DHT22;5217;43.960;10.954;2023-08-30T14:05:20;26.40;92.90
10344;DHT22;5217;43.960;10.954;2023-08-30T14:07:48;26.40;92.80
10344;DHT22;5217;43.960;10.954;2023-08-30T14:10:18;26.40;93.00
10344;DHT22;5217;43.960;10.954;2023-08-30T14:12:47;26.40;93.30
10344;DHT22;5217;43.960;10.954;2023-08-30T14:15:16;26.40;93.50
10344;DHT22;5217;43.960;10.954;2023-08-30T14:17:46;26.30;93.40
10344;DHT22;5217;43.960;10.954;2023-08-30T14:20:15;26.20;93.80
10344;DHT22;5217;43.960;10.954;2023-08-30T14:22:44;26.20;94.00
10344;DHT22;5217;43.960;10.954;2023-08-30T14:25:12;26.10;94.40
10344;DHT22;5217;43.960;10.954;2023-08-30T14:27:40;26.10;94.60
10344;DHT22;5217;43.960;10.954;2023-08-30T14:30:10;26.00;95.20
10344;DHT22;5217;43.960;10.954;2023-08-30T14:32:38;25.90;95.20
10344;DHT22;5217;43.960;10.954;2023-08-30T14:35:09;25.90;95.30
10344;DHT22;5217;43.960;10.954;2023-08-30T14:37:38;25.80;95.50
10344;DHT22;5217;43.960;10.954;2023-08-30T14:40:07;25.80;95.80
10344;DHT22;5217;43.960;10.954;2023-08-30T14:42:36;25.70;95.90
10344;DHT22;5217;43.960;10.954;2023-08-30T14:45:05;25.70;96.00
10344;DHT22;5217;43.960;10.954;2023-08-30T14:47:34;25.60;96.20
10344;DHT22;5217;43.960;10.954;2023-08-30T14:50:03;25.60;96.20
10344;DHT22;5217;43.960;10.954;2023-08-30T14:52:33;25.60;96.30
10344;DHT22;5217;43.960;10.954;2023-08-30T14:55:02;25.60;96.60
10344;DHT22;5217;43.960;10.954;2023-08-30T14:57:30;25.60;96.70
10344;DHT22;5217;43.960;10.954;2023-08-30T14:59:59;25.60;96.80
10344;DHT22;5217;43.960;10.954;2023-08-30T15:02:27;25.50;96.80
10344;DHT22;5217;43.960;10.954;2023-08-30T15:04:58;25.60;97.00
10344;DHT22;5217;43.960;10.954;2023-08-30T15:07:26;25.60;97.20
10344;DHT22;5217;43.960;10.954;2023-08-30T15:09:56;25.60;97.20
10344;DHT22;5217;43.960;10.954;2023-08-30T15:12:24;25.60;97.30
10344;DHT22;5217;43.960;10.954;2023-08-30T15:14:52;25.60;97.20
10344;DHT22;5217;43.960;10.954;2023-08-30T15:17:22;25.70;97.10
10344;DHT22;5217;43.960;10.954;2023-08-30T15:19:50;25.60;97.00
10344;DHT22;5217;43.960;10.954;2023-08-30T15:22:21;25.70;97.00
10344;DHT22;5217;43.960;10.954;2023-08-30T15:24:49;25.60;96.80
10344;DHT22;5217;43.960;10.954;2023-08-30T15:27:19;25.60;96.80
10344;DHT22;5217;43.960;10.954;2023-08-30T15:29:47;25.60;96.70
10344;DHT22;5217;43.960;10.954;2023-08-30T15:32:18;25.60;96.60
10344;DHT22;5217;43.960;10.954;2023-08-30T15:34:47;25.60;96.60
10344;DHT22;5217;43.960;10.954;2023-08-30T15:37:16;25.60;96.80
10344;DHT22;5217;43.960;10.954;2023-08-30T15:39:44;25.60;97.00
10344;DHT22;5217;43.960;10.954;2023-08-30T15:42:13;25.60;97.30
10344;DHT22;5217;43.960;10.954;2023-08-30T15:44:43;25.60;97.30
10344;DHT22;5217;43.960;10.954;2023-08-30T15:47:11;25.70;97.40
10344;DHT22;5217;43.960;10.954;2023-08-30T15:49:39;25.70;97.50